Time;durP1;ratioP1;P1;durP2;ratioP2;P2;SDS_P1;SDS_P2;PMS_P1;PMS_P2;Temp;Humidity;BMP_temperature;BMP_pressure;BME280_temperature;BME280_humidity;BME280_pressure;Samples;Min_cycle;Max_cycle;Signal;HPM_P1;HPM_P2
2022/05/28 00:02:34;;;;;;;7.00;5.70;;;;;;;7.90;91.64;98467.89;219414;1273;22537;-68
2022/05/28 00:07:40;;;;;;;6.90;5.80;;;;;;;7.89;91.74;98468.00;219749;1273;26558;-69
2022/05/28 00:12:44;;;;;;;11.00;6.10;;;;;;;7.83;91.52;98459.83;219228;1273;526777;-70
2022/05/28 00:18:20;;;;;;;7.20;5.80;;;;;;;7.77;91.31;98456.73;219456;1273;23796;-69
2022/05/28 00:23:28;;;;;;;9.10;5.50;;;;;;;7.71;91.31;98452.01;219507;1274;22540;-69
2022/05/28 00:28:54;;;;;;;7.40;5.80;;;;;;;7.65;91.53;98456.75;219466;1273;25263;-69
2022/05/28 00:34:08;;;;;;;6.20;5.50;;;;;;;7.60;91.34;98452.73;219697;1274;25494;-69
2022/05/28 00:39:52;;;;;;;7.60;5.60;;;;;;;7.58;91.59;98454.38;219487;1273;22653;-69
2022/05/28 00:45:38;;;;;;;8.30;6.00;;;;;;;7.55;91.61;98444.44;219914;1273;25611;-68
2022/05/28 00:50:41;;;;;;;7.20;5.60;;;;;;;7.49;91.42;98434.50;219781;1273;23058;-69
2022/05/28 00:55:52;;;;;;;10.20;6.30;;;;;;;7.42;91.31;98439.20;219638;1274;22631;-69
2022/05/28 01:01:18;;;;;;;8.80;5.80;;;;;;;7.36;91.70;98432.08;219957;1274;24691;-69
2022/05/28 01:06:54;;;;;;;;;;;;;;;;;;;;;
2022/05/28 01:12:44;;;;;;;9.30;6.10;;;;;;;7.23;91.33;98431.62;220069;1274;27127;-69
2022/05/28 01:18:13;;;;;;;6.90;5.40;;;;;;;7.16;91.80;98434.52;219840;1274;22643;-68
2022/05/28 01:23:21;;;;;;;7.60;5.60;;;;;;;7.13;92.10;98430.02;219944;1273;22573;-68
2022/05/28 01:28:43;;;;;;;8.20;5.80;;;;;;;7.12;92.03;98428.80;219965;1274;22548;-69
2022/05/28 01:34:12;;;;;;;7.40;5.70;;;;;;;7.10;92.23;98420.28;219332;1273;22605;-68
2022/05/28 01:39:26;;;;;;;7.40;5.20;;;;;;;7.10;92.28;98424.16;220091;1274;24276;-69
2022/05/28 01:44:31;;;;;;;8.40;5.40;;;;;;;7.13;92.19;98427.03;219781;1273;24322;-68
2022/05/28 01:49:55;;;;;;;6.10;5.40;;;;;;;7.21;92.46;98427.14;219825;1274;24344;-70
2022/05/28 01:55:22;;;;;;;7.10;5.90;;;;;;;7.29;92.69;98420.92;219463;1273;22883;-68
2022/05/28 02:00:44;;;;;;;8.50;4.90;;;;;;;7.34;92.37;98415.20;219549;1274;22559;-68
2022/05/28 02:05:52;;;;;;;8.80;5.40;;;;;;;7.36;92.27;98407.04;219888;1274;22545;-68
2022/05/28 02:11:59;;;;;;;7.40;5.40;;;;;;;7.40;92.39;98413.99;219728;1273;25340;-68
2022/05/28 02:17:25;;;;;;;8.10;5.40;;;;;;;7.46;92.46;98407.28;220078;1273;22684;-68
2022/05/28 02:22:52;;;;;;;6.50;5.50;;;;;;;7.54;92.44;98397.05;219871;1274;22558;-69
2022/05/28 02:27:58;;;;;;;6.90;5.90;;;;;;;7.57;92.28;98406.52;220153;1274;25401;-69
2022/05/28 02:33:41;;;;;;;9.00;5.80;;;;;;;7.49;91.98;98392.92;220212;1273;24368;-68
2022/05/28 02:38:44;;;;;;;7.30;5.70;;;;;;;7.34;91.75;98389.09;219487;1276;22560;-69
2022/05/28 02:44:05;;;;;;;7.30;5.70;;;;;;;7.21;91.73;98381.34;219781;1273;23048;-69
2022/05/28 02:49:30;;;;;;;5.80;4.80;;;;;;;7.13;92.00;98378.92;219951;1274;22746;-70
2022/05/28 02:55:08;;;;;;;5.90;5.40;;;;;;;7.10;92.07;98383.68;220095;1274;22717;-69
2022/05/28 03:00:52;;;;;;;8.20;5.90;;;;;;;7.09;92.97;98386.13;219574;1277;22544;-69
2022/05/28 03:06:59;;;;;;;8.40;5.80;;;;;;;7.11;92.94;98384.74;219555;1274;22626;-68
2022/05/28 03:12:51;;;;;;;6.80;6.00;;;;;;;7.12;92.80;98388.40;219631;1273;25470;-69
2022/05/28 03:18:27;;;;;;;7.90;5.80;;;;;;;7.11;92.49;98388.47;219890;1273;22670;-68
2022/05/28 03:31:58;;;;;;;8.40;6.50;;;;;;;7.40;92.57;98393.52;218665;1276;22561;-69
2022/05/28 03:38:45;;;;;;;9.00;7.80;;;;;;;7.83;92.45;98391.18;219381;1276;22541;-69
2022/05/28 03:45:00;;;;;;;8.40;6.50;;;;;;;8.05;90.46;98392.82;219922;1274;22660;-68
2022/05/28 03:58:17;;;;;;;6.90;5.30;;;;;;;8.64;89.84;98391.98;219592;1275;25511;-69
2022/05/28 04:04:44;;;;;;;;;;;;;;;;;;;;;
2022/05/28 04:24:48;;;;;;;7.30;3.20;;;;;;;8.70;87.67;98387.53;219627;1275;22573;-68
2022/05/28 04:31:06;;;;;;;4.60;2.80;;;;;;;8.67;87.69;98387.77;219711;1275;25321;-68
2022/05/28 04:37:47;;;;;;;4.10;2.40;;;;;;;8.75;87.73;98392.92;219458;1276;24229;-67
2022/05/28 04:44:12;;;;;;;3.70;2.10;;;;;;;8.90;87.30;98400.65;219543;1275;22538;-70
2022/05/28 04:50:24;;;;;;;4.10;1.90;;;;;;;9.08;87.10;98398.02;219825;1274;22567;-67
2022/05/28 04:56:34;;;;;;;3.20;1.90;;;;;;;9.24;86.70;98399.35;220164;1274;22700;-68
2022/05/28 05:02:50;;;;;;;4.50;2.00;;;;;;;9.40;85.92;98399.98;219762;1277;25389;-68
2022/05/28 05:08:54;;;;;;;3.70;1.70;;;;;;;9.52;85.29;98397.73;220010;1275;24106;-68
2022/05/28 05:14:36;;;;;;;4.70;2.10;;;;;;;9.62;84.64;98395.60;219672;1275;24233;-70
2022/05/28 05:26:22;;;;;;;6.80;2.70;;;;;;;9.83;83.86;98402.48;219900;1275;22617;-68
2022/05/28 05:31:45;;;;;;;4.90;2.50;;;;;;;9.93;83.62;98405.11;219570;1277;22629;-68
2022/05/28 05:37:05;;;;;;;4.20;2.70;;;;;;;10.04;83.43;98402.06;219979;1274;22652;-67
2022/05/28 05:42:25;;;;;;;7.40;2.60;;;;;;;10.14;82.68;98409.50;219950;1275;24291;-68
2022/05/28 05:47:57;;;;;;;3.50;1.80;;;;;;;10.26;82.13;98415.97;219609;1275;22557;-70
2022/05/28 05:53:10;;;;;;;3.20;1.70;;;;;;;10.42;81.94;98423.54;219722;1277;25529;-68
2022/05/28 05:58:16;;;;;;;3.30;1.30;;;;;;;10.55;81.21;98427.36;219956;1277;24140;-68
2022/05/28 06:03:44;;;;;;;5.00;1.50;;;;;;;10.69;80.78;98421.15;219887;1274;25389;-67
2022/05/28 06:09:02;;;;;;;4.80;1.40;;;;;;;10.83;80.45;98416.81;219938;1275;25367;-69
2022/05/28 06:15:08;;;;;;;4.50;1.60;;;;;;;11.02;79.63;98411.45;219661;1274;25249;-70
2022/05/28 06:20:30;;;;;;;4.30;1.20;;;;;;;11.28;79.35;98413.95;220210;1274;25195;-68
2022/05/28 06:26:27;;;;;;;4.00;1.90;;;;;;;11.58;78.47;98413.09;219630;1274;22649;-68
2022/05/28 06:32:03;;;;;;;2.90;1.60;;;;;;;11.78;77.83;98411.61;219726;1274;22603;-68
2022/05/28 06:37:42;;;;;;;2.60;1.10;;;;;;;12.24;77.64;98404.22;219400;1275;24224;-67
2022/05/28 06:42:58;;;;;;;2.50;0.70;;;;;;;12.83;76.86;98400.34;219413;1274;25313;-67
2022/05/28 06:48:12;;;;;;;5.20;1.10;;;;;;;13.19;74.21;98398.08;219507;1277;22929;-66
2022/05/28 06:53:42;;;;;;;3.10;0.90;;;;;;;13.39;73.05;98396.22;219354;1275;22557;-67
2022/05/28 06:58:57;;;;;;;3.00;0.90;;;;;;;13.51;72.15;98401.70;219127;1275;24231;-67
2022/05/28 07:03:59;;;;;;;2.80;1.20;;;;;;;13.62;71.72;98392.33;219125;1274;24431;-67
2022/05/28 07:14:30;;;;;;;6.70;1.70;;;;;;;13.78;67.80;98393.77;219366;1274;25345;-67
2022/05/28 07:25:46;;;;;;;2.70;0.70;;;;;;;13.90;65.83;98386.50;219572;1274;22537;-68
2022/05/28 07:30:56;;;;;;;3.30;1.00;;;;;;;13.81;64.85;98383.50;219247;1274;25312;-68
2022/05/28 07:36:36;;;;;;;4.90;1.20;;;;;;;13.49;64.39;98378.41;219864;1274;23710;-66
2022/05/28 07:41:55;;;;;;;2.90;1.20;;;;;;;13.35;64.35;98377.91;219811;1274;22732;-67
2022/05/28 07:47:12;;;;;;;4.00;1.00;;;;;;;13.20;64.27;98378.99;219981;1274;22561;-68
2022/05/28 07:52:14;;;;;;;2.70;1.00;;;;;;;13.38;65.17;98375.45;219732;1274;22584;-67
2022/05/28 07:57:19;;;;;;;3.90;0.90;;;;;;;13.67;64.90;98373.55;219704;1274;22746;-67
2022/05/28 08:02:57;;;;;;;4.20;1.30;;;;;;;13.81;64.05;98368.08;219557;1274;22541;-67
2022/05/28 08:14:19;;;;;;;5.20;1.10;;;;;;;13.37;62.64;98366.85;219064;1274;24224;-67
2022/05/28 08:19:27;;;;;;;3.30;1.00;;;;;;;13.18;62.79;98354.16;219477;1274;22562;-67
2022/05/28 08:24:41;;;;;;;2.50;0.80;;;;;;;13.23;62.86;98355.84;219213;1274;23309;-67
2022/05/28 08:29:57;;;;;;;2.50;0.70;;;;;;;13.43;62.85;98356.21;219646;1274;22561;-66
2022/05/28 08:35:05;;;;;;;1.10;0.70;;;;;;;13.87;63.15;98355.55;219308;1274;22949;-66
2022/05/28 08:40:14;;;;;;;2.70;0.90;;;;;;;14.41;62.85;98351.61;220202;1274;25248;-67
2022/05/28 08:45:18;;;;;;;1.70;0.60;;;;;;;14.74;59.15;98352.75;218811;1274;22564;-67
2022/05/28 08:50:24;;;;;;;1.30;0.80;;;;;;;14.92;59.11;98351.27;219380;1274;25844;-66
2022/05/28 08:55:50;;;;;;;3.10;0.70;;;;;;;15.10;56.78;98348.04;218879;1274;22641;-67
2022/05/28 09:00:55;;;;;;;1.70;0.50;;;;;;;14.88;54.39;98354.77;218860;1275;24210;-67
2022/05/28 09:06:06;;;;;;;2.10;0.70;;;;;;;14.97;54.30;98349.27;219174;1274;22564;-67
2022/05/28 09:11:14;;;;;;;2.10;0.50;;;;;;;15.44;54.43;98349.19;219288;1274;25311;-67
2022/05/28 09:16:30;;;;;;;1.00;0.40;;;;;;;15.48;52.94;98348.16;219130;1274;22646;-67
2022/05/28 09:21:33;;;;;;;0.90;0.40;;;;;;;15.52;52.99;98348.77;219431;1274;25248;-67
2022/05/28 09:26:56;;;;;;;1.80;0.70;;;;;;;15.51;53.00;98343.95;219389;1274;26097;-66
2022/05/28 09:32:02;;;;;;;;;;;;;;;15.52;52.75;98341.83;219357;1275;24138;-67
2022/05/28 09:37:34;;;;;;;1.10;0.60;;;;;;;15.81;52.80;98335.66;219493;1273;22557;-66
2022/05/28 09:42:48;;;;;;;2.90;1.20;;;;;;;16.19;50.51;98339.10;219624;1274;22579;-67
2022/05/28 09:47:53;;;;;;;1.70;1.00;;;;;;;16.36;48.70;98330.33;219154;1274;22710;-66
2022/05/28 09:58:37;;;;;;;2.20;0.70;;;;;;;16.59;46.51;98334.50;219087;1274;24319;-67
2022/05/28 10:09:32;;;;;;;;;;;;;;;13.97;51.73;98394.61;219085;1274;24313;-67
2022/05/28 10:14:37;;;;;;;0.40;0.40;;;;;;;12.39;55.09;98390.72;219282;1274;22827;-65
2022/05/28 10:19:47;;;;;;;1.00;0.50;;;;;;;11.69;57.40;98392.86;219341;1274;25917;-65
2022/05/28 10:25:04;;;;;;;1.30;0.40;;;;;;;11.46;57.05;98409.01;219304;1274;24211;-67
2022/05/28 10:30:24;;;;;;;0.70;0.70;;;;;;;11.34;56.05;98410.02;219105;1276;22537;-67
2022/05/28 10:35:32;;;;;;;3.00;0.80;;;;;;;11.20;56.67;98429.58;219434;1274;24893;-66
2022/05/28 10:40:51;;;;;;;0.70;0.40;;;;;;;10.84;57.89;98423.88;218992;1276;25484;-67
2022/05/28 10:46:08;;;;;;;0.30;0.30;;;;;;;10.78;60.10;98408.93;219549;1274;25360;-68
2022/05/28 10:51:43;;;;;;;1.20;0.50;;;;;;;11.08;60.72;98407.83;219624;1274;22796;-67
2022/05/28 10:56:52;;;;;;;1.00;0.50;;;;;;;11.40;61.58;98402.83;219185;1274;22611;-67
2022/05/28 11:02:18;;;;;;;1.00;0.50;;;;;;;11.85;61.93;98405.69;219211;1274;22532;-68
2022/05/28 11:07:43;;;;;;;1.50;1.00;;;;;;;12.24;61.85;98410.94;219454;1274;25951;-66
2022/05/28 11:13:52;;;;;;;2.00;0.80;;;;;;;12.48;61.34;98412.98;219551;1274;23090;-67
2022/05/28 11:19:09;;;;;;;2.60;2.10;;;;;;;12.56;60.41;98407.80;219535;1274;24222;-68
2022/05/28 11:24:17;;;;;;;3.30;2.80;;;;;;;12.79;60.49;98401.25;219429;1274;22637;-67
2022/05/28 11:29:46;;;;;;;2.60;1.10;;;;;;;13.36;59.85;98390.48;219572;1274;22596;-66
2022/05/28 11:35:07;;;;;;;2.30;1.00;;;;;;;13.67;57.51;98383.52;219640;1274;22560;-65
2022/05/28 11:40:28;;;;;;;2.30;0.80;;;;;;;13.92;57.68;98382.70;219381;1273;22604;-66
2022/05/28 11:45:54;;;;;;;2.00;0.90;;;;;;;14.14;56.73;98366.07;219619;1274;22547;-66
2022/05/28 11:56:29;;;;;;;1.70;0.50;;;;;;;14.60;54.57;98360.13;219565;1274;22548;-68
2022/05/28 12:02:15;;;;;;;8.00;6.30;;;;;;;14.63;51.56;98347.48;219521;1274;22534;-66
2022/05/28 12:07:35;;;;;;;1.40;0.40;;;;;;;14.79;49.62;98344.16;219471;1273;22616;-66
2022/05/28 12:12:53;;;;;;;1.30;0.40;;;;;;;14.97;50.28;98343.54;215749;1274;5457244;-66
2022/05/28 12:18:29;;;;;;;0.80;0.50;;;;;;;15.23;48.12;98346.42;219225;1275;22551;-66
2022/05/28 12:23:42;;;;;;;1.70;1.10;;;;;;;15.44;48.98;98350.25;219183;1275;23137;-67
2022/05/28 12:28:51;;;;;;;0.60;0.60;;;;;;;15.51;49.12;98361.78;219539;1274;25458;-67
2022/05/28 12:34:01;;;;;;;1.40;0.30;;;;;;;15.21;49.01;98387.29;219422;1274;22590;-66
2022/05/28 12:39:25;;;;;;;1.10;0.70;;;;;;;14.31;49.50;98431.02;219508;1273;22567;-67
2022/05/28 12:44:34;;;;;;;0.70;0.40;;;;;;;12.81;53.51;98442.84;219564;1274;22547;-67
2022/05/28 12:50:04;;;;;;;0.40;0.20;;;;;;;11.48;58.20;98446.98;219266;1274;22547;-67
2022/05/28 12:55:28;;;;;;;0.90;0.50;;;;;;;10.49;61.03;98431.91;219424;1273;24299;-66
2022/05/28 13:00:55;;;;;;;2.70;1.10;;;;;;;10.21;62.96;98422.22;219665;1274;24425;-66
2022/05/28 13:06:28;;;;;;;0.80;0.80;;;;;;;10.65;64.01;98410.95;219470;1274;22477;-67
2022/05/28 13:11:55;;;;;;;0.50;0.40;;;;;;;11.33;63.14;98408.21;219553;1274;25348;-67
2022/05/28 13:17:32;;;;;;;0.40;0.40;;;;;;;11.74;61.43;98417.34;219878;1274;25589;-66
2022/05/28 13:23:09;;;;;;;1.70;0.80;;;;;;;12.00;58.65;98415.45;219369;1274;22640;-67
2022/05/28 13:28:45;;;;;;;1.50;0.80;;;;;;;12.18;58.44;98386.18;219545;1274;24319;-68
2022/05/28 13:34:32;;;;;;;0.30;0.30;;;;;;;12.62;56.36;98391.20;219818;1274;22543;-67
2022/05/28 13:39:46;;;;;;;0.70;0.40;;;;;;;13.02;55.09;98381.66;219624;1274;24235;-67
2022/05/28 13:45:13;;;;;;;0.40;0.20;;;;;;;13.39;55.10;98377.73;219595;1274;22557;-65
2022/05/28 13:50:34;;;;;;;2.20;0.40;;;;;;;13.70;53.84;98369.15;219853;1273;25365;-67
2022/05/28 13:56:03;;;;;;;1.80;0.50;;;;;;;13.90;52.91;98368.14;219337;1274;22624;-67
2022/05/28 14:01:11;;;;;;;0.70;0.40;;;;;;;14.08;51.70;98370.42;219495;1274;24283;-66
2022/05/28 14:06:29;;;;;;;0.50;0.30;;;;;;;14.33;52.21;98355.20;219359;1274;22601;-67
2022/05/28 14:11:37;;;;;;;1.10;0.50;;;;;;;14.74;51.57;98356.77;219442;1273;22539;-66
2022/05/28 14:16:50;;;;;;;1.20;1.00;;;;;;;15.03;50.23;98360.96;219433;1274;24287;-67
2022/05/28 14:21:58;;;;;;;2.90;0.70;;;;;;;15.27;51.11;98359.45;219509;1274;22597;-68
2022/05/28 14:27:13;;;;;;;1.70;1.10;;;;;;;15.26;50.48;98374.20;219768;1274;22560;-67
2022/05/28 14:32:36;;;;;;;1.00;0.60;;;;;;;15.13;50.74;98375.29;219736;1274;24252;-67
2022/05/28 14:37:39;;;;;;;1.40;1.00;;;;;;;15.30;50.63;98377.20;219630;1274;22561;-66
2022/05/28 14:42:45;;;;;;;0.50;0.50;;;;;;;15.35;49.30;98372.59;219514;1273;23033;-65
2022/05/28 14:47:55;;;;;;;;;;;;;;;15.26;48.53;98382.30;219837;1273;25537;-66
2022/05/28 14:53:06;;;;;;;3.10;2.30;;;;;;;15.15;48.42;98378.05;219663;1274;25416;-67
2022/05/28 14:58:39;;;;;;;2.00;0.50;;;;;;;15.15;47.92;98379.06;220035;1274;24310;-66
2022/05/28 15:03:50;;;;;;;1.40;0.60;;;;;;;15.28;47.54;98371.27;219788;1274;22558;-65
2022/05/28 15:08:56;;;;;;;3.80;0.90;;;;;;;15.48;47.50;98378.55;219755;1274;22584;-67
2022/05/28 15:14:23;;;;;;;0.60;0.60;;;;;;;15.44;46.67;98385.96;219450;1273;22532;-67
2022/05/28 15:19:26;;;;;;;3.00;0.60;;;;;;;15.17;47.37;98386.27;219580;1273;26480;-67
2022/05/28 15:24:28;;;;;;;1.60;0.50;;;;;;;15.22;48.40;98383.92;220182;1273;22764;-67
2022/05/28 15:29:30;;;;;;;1.00;0.50;;;;;;;15.42;48.45;98392.31;219788;1274;22567;-67
2022/05/28 15:34:43;;;;;;;1.20;0.80;;;;;;;15.51;48.17;98388.39;219458;1273;22694;-66
2022/05/28 15:39:49;;;;;;;0.50;0.40;;;;;;;15.35;49.21;98388.97;219413;1273;22537;-67
2022/05/28 15:44:55;;;;;;;3.10;1.00;;;;;;;15.08;49.86;98387.98;219585;1273;22573;-67
2022/05/28 15:50:05;;;;;;;2.40;1.00;;;;;;;14.89;50.26;98385.79;219293;1274;22560;-66
2022/05/28 15:55:13;;;;;;;1.20;1.00;;;;;;;14.74;50.53;98390.52;219613;1275;22657;-66
2022/05/28 16:00:32;;;;;;;1.00;0.80;;;;;;;14.71;50.73;98389.71;220133;1274;22544;-67
2022/05/28 16:05:38;;;;;;;1.80;0.90;;;;;;;14.70;50.54;98386.66;219825;1274;24312;-66
2022/05/28 16:10:41;;;;;;;3.80;1.00;;;;;;;14.60;49.99;98383.38;220011;1273;23464;-66
2022/05/28 16:15:44;;;;;;;1.20;0.70;;;;;;;14.60;50.04;98386.38;219774;1274;22553;-69
2022/05/28 16:20:47;;;;;;;4.30;1.20;;;;;;;14.61;49.84;98383.42;219771;1273;26563;-66
2022/05/28 16:25:50;;;;;;;1.80;0.70;;;;;;;14.65;50.14;98387.40;219838;1273;22943;-64
2022/05/28 16:31:24;;;;;;;;;;;;;;;;;;;;;
2022/05/28 16:36:32;;;;;;;1.80;0.80;;;;;;;14.66;49.50;98396.86;219921;1273;25353;-66
2022/05/28 16:41:36;;;;;;;2.10;0.50;;;;;;;14.33;49.63;98395.00;219858;1273;25264;-66
2022/05/28 16:46:45;;;;;;;1.40;0.80;;;;;;;14.07;50.69;98399.65;219471;1273;24484;-67
2022/05/28 16:52:09;;;;;;;2.80;0.90;;;;;;;14.10;51.05;98396.98;219601;1273;25374;-67
2022/05/28 16:57:44;;;;;;;2.40;1.80;;;;;;;14.36;51.17;98395.77;219485;1274;22555;-67
2022/05/28 17:02:58;;;;;;;1.40;0.60;;;;;;;14.53;50.80;98401.19;219768;1273;22538;-66
2022/05/28 17:08:47;;;;;;;3.50;1.00;;;;;;;14.61;50.89;98395.74;219634;1273;25459;-67
2022/05/28 17:13:55;;;;;;;1.00;0.70;;;;;;;15.44;50.66;98391.53;219547;1274;24446;-66
2022/05/28 17:24:28;;;;;;;2.50;0.80;;;;;;;14.74;47.97;98398.50;219969;1274;24320;-66
2022/05/28 17:29:32;;;;;;;2.40;1.00;;;;;;;14.22;48.92;98400.65;219366;1273;22558;-66
2022/05/28 17:34:39;;;;;;;3.30;0.90;;;;;;;13.96;49.92;98407.88;219561;1273;24407;-66
2022/05/28 17:39:42;;;;;;;1.50;1.00;;;;;;;14.33;51.02;98409.73;219976;1274;22532;-66
2022/05/28 17:44:53;;;;;;;2.10;1.50;;;;;;;14.39;50.65;98414.42;219832;1273;24721;-66
2022/05/28 17:50:01;;;;;;;3.80;1.40;;;;;;;14.15;50.66;98416.11;219526;1274;24226;-67
2022/05/28 17:55:04;;;;;;;2.60;1.70;;;;;;;13.85;51.16;98409.54;219730;1275;22738;-68
2022/05/28 18:00:15;;;;;;;2.70;1.70;;;;;;;13.62;51.77;98412.88;219482;1275;22692;-67
2022/05/28 18:05:20;;;;;;;2.10;1.20;;;;;;;13.40;51.94;98417.80;219712;1274;22705;-67
2022/05/28 18:10:22;;;;;;;2.70;0.90;;;;;;;13.13;52.53;98421.86;219947;1273;25619;-67
2022/05/28 18:15:26;;;;;;;2.20;1.00;;;;;;;12.84;52.85;98429.82;219611;1273;25306;-66
2022/05/28 18:20:33;;;;;;;2.30;1.00;;;;;;;12.56;53.38;98431.64;219469;1274;23063;-67
2022/05/28 18:25:48;;;;;;;3.70;1.60;;;;;;;12.27;53.72;98438.88;219349;1275;25515;-66
2022/05/28 18:30:50;;;;;;;10.90;7.30;;;;;;;11.98;54.55;98445.67;219568;1275;22622;-66
2022/05/28 18:35:57;;;;;;;4.90;3.20;;;;;;;11.74;55.27;98446.36;219375;1273;22525;-66
2022/05/28 18:41:11;;;;;;;3.50;1.80;;;;;;;11.53;56.03;98438.95;220093;1273;22550;-66
2022/05/28 18:46:36;;;;;;;2.10;1.30;;;;;;;11.32;56.56;98442.09;219874;1273;24228;-66
2022/05/28 18:51:46;;;;;;;8.40;5.50;;;;;;;11.10;56.87;98442.48;219516;1274;25672;-67
2022/05/28 18:56:55;;;;;;;23.40;15.80;;;;;;;10.94;57.57;98439.16;219414;1274;22537;-66
2022/05/28 19:02:04;;;;;;;9.50;5.20;;;;;;;10.80;57.83;98445.97;219479;1274;22582;-67
2022/05/28 19:07:24;;;;;;;7.40;4.30;;;;;;;10.67;58.31;98451.52;219971;1273;22537;-67
2022/05/28 19:12:50;;;;;;;5.40;2.40;;;;;;;10.56;58.86;98459.91;219970;1273;22525;-66
2022/05/28 19:18:19;;;;;;;4.50;2.00;;;;;;;10.45;59.24;98466.95;219791;1274;22541;-66
2022/05/28 19:23:22;;;;;;;4.20;1.90;;;;;;;10.38;59.42;98476.36;219999;1274;25293;-66
2022/05/28 19:28:30;;;;;;;6.50;4.00;;;;;;;10.32;59.73;98475.80;219959;1274;22579;-66
2022/05/28 19:33:35;;;;;;;16.80;10.50;;;;;;;10.21;60.47;98475.38;220008;1274;22539;-68
2022/05/28 19:38:44;;;;;;;15.60;8.70;;;;;;;10.04;61.16;98478.70;219807;1277;25410;-66
2022/05/28 19:43:58;;;;;;;12.50;8.20;;;;;;;9.86;61.99;98483.61;219486;1274;26392;-67
2022/05/28 19:49:13;;;;;;;17.70;7.30;;;;;;;9.68;62.75;98483.88;219432;1274;22663;-65
2022/05/28 19:54:28;;;;;;;16.40;10.90;;;;;;;9.50;63.43;98484.02;219248;1274;22575;-65
2022/05/28 19:59:30;;;;;;;12.50;6.20;;;;;;;9.35;63.76;98486.61;219064;1277;22498;-65
2022/05/28 20:04:36;;;;;;;18.20;12.60;;;;;;;9.26;64.11;98486.52;219462;1273;22604;-66
2022/05/28 20:09:41;;;;;;;14.20;7.80;;;;;;;9.13;64.86;98488.64;220004;1273;22623;-66
2022/05/28 20:14:44;;;;;;;10.40;6.50;;;;;;;9.00;65.33;98493.61;219947;1273;25296;-65
2022/05/28 20:19:46;;;;;;;10.50;6.90;;;;;;;8.88;65.66;98494.96;219711;1273;25373;-66
2022/05/28 20:24:52;;;;;;;12.70;8.00;;;;;;;8.79;65.95;98491.16;219393;1274;22541;-65
2022/05/28 20:29:57;;;;;;;17.60;10.80;;;;;;;8.76;66.24;98492.00;219493;1274;25413;-66
2022/05/28 20:35:01;;;;;;;13.10;7.80;;;;;;;8.74;66.52;98491.90;219971;1274;25313;-67
2022/05/28 20:40:09;;;;;;;13.50;6.60;;;;;;;8.73;66.62;98491.65;220098;1273;22639;-67
2022/05/28 20:45:13;;;;;;;11.90;7.30;;;;;;;8.68;67.03;98486.90;219865;1274;26486;-67
2022/05/28 20:50:50;;;;;;;;;;;;;;;;;;;;;
2022/05/28 20:55:57;;;;;;;11.40;6.10;;;;;;;8.55;67.38;98482.16;219569;1277;23936;-66
2022/05/28 21:01:07;;;;;;;13.20;7.40;;;;;;;8.51;67.79;98484.71;219341;1277;25183;-66
2022/05/28 21:06:12;;;;;;;16.20;9.20;;;;;;;8.48;68.11;98492.53;219468;1274;22617;-66
2022/05/28 21:11:35;;;;;;;15.50;9.70;;;;;;;8.46;68.59;98485.87;219419;1274;25259;-66
2022/05/28 21:16:41;;;;;;;11.00;7.20;;;;;;;8.47;69.05;98487.99;219619;1275;23602;-67
2022/05/28 21:21:44;;;;;;;10.40;5.40;;;;;;;8.53;69.43;98488.80;219778;1273;25423;-66
2022/05/28 21:32:57;;;;;;;8.40;5.20;;;;;;;8.78;69.45;98485.66;219527;1277;23963;-66
2022/05/28 21:38:04;;;;;;;10.40;6.90;;;;;;;8.87;69.20;98489.89;219757;1274;22538;-67
2022/05/28 21:43:09;;;;;;;10.10;6.50;;;;;;;8.94;68.76;98482.83;219618;1274;22708;-66
2022/05/28 21:48:32;;;;;;;9.40;5.40;;;;;;;8.98;68.74;98474.71;220228;1274;24116;-66
2022/05/28 21:53:40;;;;;;;12.40;8.30;;;;;;;9.01;68.61;98471.63;219820;1274;22589;-66
2022/05/28 21:58:42;;;;;;;13.50;9.70;;;;;;;9.01;68.42;98475.75;220099;1273;25930;-66
2022/05/28 22:03:45;;;;;;;6.80;4.40;;;;;;;8.98;68.32;98473.58;219934;1273;22631;-67
2022/05/28 22:09:31;;;;;;;9.20;6.30;;;;;;;8.93;68.37;98475.93;219765;1274;24976;-66
2022/05/28 22:14:54;;;;;;;9.20;5.40;;;;;;;8.85;68.67;98464.06;219967;1276;25273;-66
2022/05/28 22:20:03;;;;;;;;;;;;;;;8.78;68.73;98460.35;219777;1273;23777;-65
2022/05/28 22:25:10;;;;;;;8.30;4.60;;;;;;;8.69;68.86;98461.30;219567;1275;22544;-65
2022/05/28 22:30:28;;;;;;;7.50;4.50;;;;;;;8.64;69.03;98463.54;219972;1273;25482;-67
2022/05/28 22:36:06;;;;;;;7.90;5.70;;;;;;;8.62;69.24;98464.68;219493;1273;25407;-66
2022/05/28 22:41:21;;;;;;;8.40;5.20;;;;;;;8.61;69.40;98459.19;219693;1274;22586;-66
2022/05/28 22:46:31;;;;;;;11.40;5.00;;;;;;;8.60;69.24;98458.83;219605;1274;22568;-66
2022/05/28 22:52:40;;;;;;;7.50;4.20;;;;;;;8.58;69.17;98464.61;219913;1274;22791;-67
2022/05/28 22:58:01;;;;;;;7.20;3.40;;;;;;;8.54;69.27;98464.06;219976;1274;25237;-66
2022/05/28 23:03:24;;;;;;;4.70;3.30;;;;;;;8.49;69.25;98465.61;220048;1274;22545;-68
2022/05/28 23:09:09;;;;;;;4.10;3.20;;;;;;;8.45;69.14;98462.33;220051;1274;25339;-66
2022/05/28 23:15:44;;;;;;;4.50;3.10;;;;;;;8.40;69.51;98453.11;219595;1274;24930;-67
2022/05/28 23:21:31;;;;;;;6.00;3.80;;;;;;;8.34;69.66;98446.77;219028;1277;22559;-65
2022/05/28 23:27:20;;;;;;;;;;;;;;;;;;;;;
2022/05/28 23:33:59;;;;;;;6.70;4.20;;;;;;;8.17;70.02;98433.73;219485;1274;22551;-65
2022/05/28 23:46:20;;;;;;;7.20;4.00;;;;;;;7.95;70.49;98418.98;219133;1277;22727;-66
2022/05/28 23:52:24;;;;;;;4.80;4.30;;;;;;;7.83;70.85;98414.70;219289;1276;22621;-66
2022/05/28 23:58:40;;;;;;;;;;;;;;;;;;;;;
